Saint Louis, Missouri
Current Conditions -  °F | °C
As of 7:38 AM on Sunday 23 Nov 2014 (Local Time) from KCPS Reporting Station
Broken Clouds Broken Clouds  
Wind Chill: 12°   Ceiling: 1700
Heat Index: 12°   Visibility: 10mi
Dew Point:   Wind: 9mph
Humidity: 83%   Direction: 150°SSE
Pressure: 29.72"   Gusts: NA
Location:  38.63°N, 90.24°W
Report Text: KCPS 231338Z 15008KT 10SM BKN017 BKN120 12/09 A2972 RMK AO2 T01220094
Loading
Personal Weather Stations






























Interactive Weather Map New forecast layout! Learn more

10-Day Weather Forecast

Advertisements
Track Severe Weather on mobile